Jemez Springs, Valles Caldera, New Mexico Weather observations

Data are for 10 minute period ending at time listed.
 Day   Time   Solar   Ave.   Ave.  Ave.  Vector  Max.   Baro.   Total    
  of    of     Rad.   Air    Rel.  Wind   Wind   Wind  Press.  Precip.   
Year   Day            Temp.  Hum.  Speed  Dir.   Gust                    
2015   (MST)  Kw/m2    F      %     mph   deg.    mph    mb.     in.     
-------------------------------------------------------------------------
 144   10:30   0.53   54.1    54    6.4   152    14.3   806.1    0.00 
 144   10:40   0.49   54.2    55    4.5   179    10.2   806.1    0.00 
 144   10:50   0.38   54.0    54    4.7   145     9.6   806.3    0.00 
 144   11:00   0.31   53.4    54    5.8   149    11.9   806.1    0.00 
 144   11:10   0.28   53.0    54    4.1   117     7.2   806.1    0.00 
 144   11:20   0.27   53.0    55    4.3   162    11.3   806.1    0.00 
 144   11:30   0.41   53.4    56    4.4    46     9.0   806.1    0.00 
 144   11:40   0.52   54.1    56    4.6   151     8.4   806.1    0.00 
 144   11:50   0.56   54.6    56    5.9   149    11.9   806.0    0.00 
 144   12:00   0.51   54.1    56    6.0   163    11.3   806.1    0.00 
 144   12:10   0.78   55.1    56    4.5   142     7.8   806.0    0.00 
 144   12:20   0.77   56.9    51    3.8    64    11.9   805.9    0.00 
 144   12:30   0.74   56.9    50    5.3   339    11.3   805.9    0.00 
 144   12:40   0.96   57.5    51    4.3    77     7.8   805.6    0.00 
 144   12:50   0.95   59.7    48    5.6   137    12.5   805.4    0.00 
 144   13:00   0.96   58.2    45    6.4   285    19.1   805.4    0.00 
 144   13:10   0.88   57.8    47    5.7   135    11.9   805.2    0.00 
 144   13:20   0.79   59.2    44    6.4     8    17.9   805.0    0.00 
 144   13:30   0.77   58.7    46    6.6    18    11.3   804.9    0.00 
 144   13:40   0.90   58.5    45    7.0    14    14.3   804.8    0.00 
 144   13:50   0.98   59.0    44    9.8   172    17.9   804.6    0.00 
 144   14:00   0.99   60.7    42    6.0    73    11.9   804.6    0.00 
 144   14:10   0.97   59.8    42    8.0   142    17.9   804.5    0.00 
 144   14:20   0.91   60.7    42    7.5   132    15.5   804.4    0.00 
 144   14:30   0.58   61.1    41    3.7   152     9.0   804.3    0.00 
 144   14:40   0.48   59.4    43    7.2    47    14.9   804.2    0.00 
 144   14:50   0.90   60.0    42    8.3    87    16.7   804.1    0.00 
 144   15:00   0.52   59.7    42    5.5   163    11.9   804.1    0.00 
 144   15:10   0.78   61.1    40    6.8    84    14.9   804.0    0.00 
 144   15:20   0.76   61.0    41    6.9    41    21.5   803.8    0.00 
 144   15:30   0.62   61.2    40    7.1   135    18.5   803.7    0.00 
 144   15:40   0.13   59.5    42    4.8   130    11.9   803.8    0.00 
 144   15:50   0.11   58.7    45    8.2   217    14.9   803.9    0.00 
 144   16:00   0.10   57.5    48    6.0     9    13.1   804.4    0.00 
 144   16:10   0.26   54.1    59    4.2    54    10.8   804.5    0.00 
 144   16:20   0.50   55.3    60    4.9    73    11.7   804.3    0.00 
 144   16:30   0.50   56.9    56    4.3    45    13.1   804.2    0.00 
 144   16:40   0.48   58.5    54    4.4   344     9.0   804.1    0.00 
 144   16:50   0.43   59.9    50    3.1    20     6.6   803.9    0.00 
 144   17:00   0.28   59.5    50    2.6   296     6.0   803.7    0.00 
 144   17:10   0.34   59.1    46    2.9   131     6.6   803.6    0.00 
 144   17:20   0.31   59.4    44    4.6   173     9.0   803.5    0.00 
 144   17:30   0.28   59.0    42    6.4   122    13.1   803.5    0.00 
 144   17:40   0.12   58.1    42    4.9   176     8.4   803.5    0.00 
 144   17:50   0.05   57.5    43    5.0    39    15.5   803.5    0.00 
 144   18:00   0.04   57.0    45    3.9    21    12.5   803.5    0.00 
 144   18:10   0.03   56.7    47    1.9    32     4.2   803.5    0.00 
 144   18:20   0.02   56.0    51    2.3   351     6.6   803.5    0.00 
 144   18:30   0.02   55.6    51    4.2    10    12.5   803.6    0.00 
 144   18:40   0.02   55.5    52    3.5   353    10.8   803.7    0.00 
 144   18:50   0.01   54.9    54    4.4   342    10.2   803.7    0.00 
 144   19:00   0.01   54.2    56    5.1    14    11.9   803.9    0.00 
 144   19:10   0.01   54.4    55    3.6   341     7.8   804.0    0.00 
 144   19:20   0.00   54.4    54    5.2    32    10.8   804.1    0.00 
 144   19:30   0.00   54.4    54    5.3    30    12.5   804.3    0.00 
 144   19:40   0.00   54.1    54    5.7    43     9.6   804.3    0.00 
 144   19:50   0.00   54.3    54    5.9    38    11.9   804.4    0.00 
 144   20:00   0.00   53.3    57    4.2   320    10.2   804.6    0.00 
 144   20:10   0.00   51.4    62    1.5   325     4.2   804.8    0.00 
 144   20:20   0.00   50.1    66    1.4   326     6.0   805.0    0.00 
 144   20:30   0.00   49.4    68    3.0   358     6.6   805.2    0.00 
 144   20:40   0.00   48.8    70    3.5     4     7.2   805.5    0.00 
 144   20:50   0.00   48.1    73    5.0    16     7.2   805.7    0.00 
 144   21:00   0.00   47.5    74    4.5    19     7.2   805.8    0.00 
 144   21:10   0.00   46.7    76    3.4    45     7.2   805.9    0.00 
 144   21:20   0.00   46.4    77    4.2    24     7.8   806.1    0.00 
 144   21:30   0.00   46.1    77    5.3    13     7.2   806.1    0.00 
 144   21:40   0.00   45.8    78    6.0     3     9.6   806.2    0.00 
 144   21:50   0.00   45.4    79    5.9     5    10.8   806.2    0.00 
 144   22:00   0.00   45.5    77    4.9   355    10.2   806.2    0.00 
 144   22:10   0.00   45.4    77    4.0     6     7.2   806.3    0.00 
 144   22:20   0.00   45.1    77    5.4    21     9.6   806.4    0.00 
 144   22:30   0.00   44.8    78    5.2     9    10.2   806.4    0.00 
 144   22:40   0.00   44.7    78    4.2     3     7.2   806.3    0.00 
 144   22:50   0.00   44.8    77    5.3    19     9.6   806.3    0.00 
 144   23:00   0.00   44.7    77    4.0     6     8.4   806.4    0.00 
 144   23:10   0.00   44.7    76    5.6     8    11.3   806.5    0.00 
 144   23:20   0.00   44.9    75    4.6     5     8.4   806.6    0.00 
 144   23:30   0.00   44.8    76    4.5   351     7.2   806.6    0.00 
 144   23:40   0.00   44.7    76    4.5   348     9.0   806.5    0.00 
 144   23:50   0.00   45.0    75    5.0    18    10.2   806.5    0.00 
 145    0:00   0.00   44.5    76    4.3    14     7.2   806.6    0.00 
 145    0:10   0.00   44.1    77    5.3    14     7.8   806.5    0.00 
 145    0:20   0.00   43.9    77    5.1    10     9.0   806.5    0.00 
 145    0:30   0.00   43.8    77    5.4    14     9.0   806.4    0.00 
 145    0:40   0.00   43.4    78    5.7     5     9.0   806.3    0.00 
 145    0:50   0.00   43.0    79    4.8    14     9.0   806.2    0.00 
 145    1:00   0.00   42.6    80    4.6    20     8.4   806.2    0.00 
 145    1:10   0.00   42.3    81    5.0    14     8.4   806.2    0.00 
 145    1:20   0.00   42.4    81    5.1    18     9.0   806.1    0.00 
 145    1:30   0.00   42.4    82    5.3    24     9.6   806.1    0.00 
 145    1:40   0.00   42.3    82    4.8     0    10.2   806.1    0.00 
 145    1:50   0.00   42.3    82    4.4     2     7.8   806.0    0.00 
 145    2:00   0.00   42.1    82    4.8    22     8.4   806.0    0.00 
 145    2:10   0.00   41.8    83    4.2   356     6.6   806.1    0.00 
 145    2:20   0.00   42.0    83    4.2     1     7.2   806.1    0.00 
 145    2:30   0.00   42.0    83    4.3    10     6.0   806.2    0.00 
 145    2:40   0.00   42.3    82    4.2     0     6.6   806.2    0.00 
 145    2:50   0.00   42.0    83    4.6    17     8.4   806.2    0.00 
 145    3:00   0.00   42.0    83    5.4     6     9.0   806.1    0.00 
 145    3:10   0.00   42.0    82    5.6    11    10.2   806.2    0.00 
 145    3:20   0.00   41.8    83    5.4    17     8.4   806.1    0.00 
 145    3:30   0.00   41.7    84    5.8    26     9.6   806.1    0.00 
 145    3:40   0.00   42.0    83    5.2    12     9.0   806.1    0.00 
 145    3:50   0.00   42.2    82    5.3    11     9.0   806.0    0.00 
 145    4:00   0.00   42.2    82    4.7    14     7.8   806.0    0.00 
 145    4:10   0.00   42.2    82    4.1   349     8.1   806.0    0.00 
 145    4:20   0.00   42.2    83    4.1    18     7.2   806.0    0.00 
 145    4:30   0.00   41.8    84    4.7    28     9.0   806.0    0.00 
 145    4:40   0.00   41.5    85    4.7    27     7.8   806.0    0.00 
 145    4:50   0.00   41.3    85    4.1    28     7.2   806.0    0.00 
 145    5:00   0.00   41.3    85    5.0    24     8.4   806.0    0.00 
 145    5:10   0.01   41.1    85    4.8    16     7.2   806.2    0.00 
 145    5:20   0.01   41.1    85    5.0    13     8.4   806.2    0.00 
 145    5:30   0.01   40.9    86    4.9    22     7.2   806.1    0.00 
 145    5:40   0.02   40.5    87    5.7    18     7.8   806.2    0.00 
 145    5:50   0.02   40.7    86    5.4     6     7.8   806.1    0.00 
 145    6:00   0.02   40.8    86    3.5     5     7.8   806.1    0.00 
 145    6:10   0.02   40.6    87    3.2    31     5.4   806.1    0.00 
 145    6:20   0.07   40.7    87    3.2    30     4.8   806.0    0.00 
 145    6:30   0.27   43.5    81    4.1    25     7.2   806.2    0.00 
 145    6:40   0.31   46.8    73    2.7    24     5.4   806.3    0.00 
 145    6:50   0.35   49.3    68    1.6    33     3.6   806.3    0.00 
 145    7:00   0.38   51.6    63    1.5   136     3.0   806.3    0.00 
 145    7:10   0.42   52.6    61    2.4   132     3.6   806.3    0.00 
 145    7:20   0.45   53.0    59    3.3   149     5.4   806.4    0.00 
 145    7:30   0.47   53.0    59    3.8   164     6.6   806.3    0.00 
 145    7:40   0.53   53.5    58    4.7   176     7.2   806.3    0.00 
 145    7:50   0.56   54.7    56    5.3   163     7.8   806.3    0.00 
 145    8:00   0.61   55.3    57    5.0   178     7.8   806.3    0.00 
 145    8:10   0.28   54.3    58    5.9   188     8.4   806.4    0.00 
 145    8:20   0.21   54.7    58    3.7   175     7.2   806.4    0.00 
 145    8:30   0.16   54.6    58    4.2   180     7.2   806.4    0.00 
 145    8:40   0.61   55.7    53    5.7   175     9.6   806.3    0.00 
 145    8:50   0.40   57.8    49    3.7   186     7.2   806.3    0.00 
 145    9:00   0.46   57.6    45    3.5   254     7.8   806.3    0.00 
 145    9:10   0.58   59.2    43    3.1   237     7.2   806.2    0.00 
 145    9:20   0.81   60.3    42    5.7   229    10.2   806.2    0.00 
 145    9:30   0.67   60.4    41    6.5   282    13.1   806.1    0.00 
 145    9:40   0.90   61.8    39    6.3    26    13.1   806.0    0.00 
 145    9:50   0.82   61.6    38    6.9   194    17.3   806.0    0.00 
 145   10:00   0.90   61.8    38    5.2     7    10.2   806.0    0.00 
 145   10:10   0.95   63.0    37    3.4   259     6.6   805.8    0.00 
 145   10:20   0.96   63.3    36    5.3   120    10.8   805.8    0.00 

Return to Jemez Springs, Valles Caldera graphs page.


Western Regional Climate Center,wrcc@dri.edu